createdAt,value
2019-03-20T00:02:57.659Z,7.90
2019-03-20T00:06:02.776Z,7.80
2019-03-20T00:09:09.873Z,7.80
2019-03-20T00:12:15.112Z,7.80
2019-03-20T00:15:19.913Z,7.80
2019-03-20T00:18:24.894Z,7.80
2019-03-20T00:21:29.913Z,7.70
2019-03-20T00:24:35.037Z,7.70
2019-03-20T00:27:39.984Z,7.70
2019-03-20T00:30:45.092Z,7.70
2019-03-20T00:33:50.068Z,7.70
2019-03-20T00:36:54.937Z,7.70
2019-03-20T00:39:59.977Z,7.70
2019-03-20T00:43:05.267Z,7.70
2019-03-20T00:46:10.273Z,7.70
2019-03-20T00:49:15.268Z,7.70
2019-03-20T00:52:20.260Z,7.50
2019-03-20T00:55:25.267Z,7.50
2019-03-20T00:58:30.371Z,7.50
2019-03-20T01:01:35.485Z,7.50
2019-03-20T01:04:40.432Z,7.50
2019-03-20T01:07:45.889Z,7.40
2019-03-20T01:10:50.839Z,7.40
2019-03-20T01:13:55.851Z,7.30
2019-03-20T01:17:00.779Z,7.20
2019-03-20T01:20:05.837Z,7.20
2019-03-20T01:23:10.866Z,7.10
2019-03-20T01:26:15.703Z,7.10
2019-03-20T01:29:20.903Z,7.10
2019-03-20T01:32:25.948Z,7.00
2019-03-20T01:35:31.036Z,7.00
2019-03-20T01:38:36.020Z,6.90
2019-03-20T01:41:41.149Z,6.90
2019-03-20T01:44:46.387Z,6.90
2019-03-20T01:47:51.618Z,6.90
2019-03-20T01:51:10.677Z,6.80
2019-03-20T01:54:15.530Z,6.80
2019-03-20T01:57:20.538Z,6.80
2019-03-20T02:00:25.703Z,6.80
2019-03-20T02:03:49.557Z,6.90
2019-03-20T02:06:54.944Z,6.90
2019-03-20T02:09:59.961Z,6.90
2019-03-20T02:13:05.581Z,6.90
2019-03-20T02:16:10.834Z,6.90
2019-03-20T02:19:15.823Z,6.90
2019-03-20T02:22:20.935Z,6.90
2019-03-20T02:25:25.938Z,6.80
2019-03-20T02:28:31.126Z,6.90
2019-03-20T02:31:41.182Z,6.90
2019-03-20T02:34:46.393Z,6.80
2019-03-20T02:37:51.496Z,6.80
2019-03-20T02:40:56.692Z,6.80
2019-03-20T02:44:01.659Z,6.80
2019-03-20T02:47:06.768Z,6.60
2019-03-20T02:50:11.869Z,6.60
2019-03-20T02:53:16.758Z,6.60
2019-03-20T02:56:21.741Z,6.50
2019-03-20T02:59:26.715Z,6.50
2019-03-20T03:02:31.886Z,6.50
2019-03-20T03:05:36.999Z,6.50
2019-03-20T03:08:42.020Z,6.60
2019-03-20T03:11:47.011Z,6.50
2019-03-20T03:14:51.988Z,6.50
2019-03-20T03:17:56.974Z,6.50
2019-03-20T03:21:01.847Z,6.40
2019-03-20T03:24:06.753Z,6.50
2019-03-20T03:27:20.419Z,6.40
2019-03-20T03:30:25.502Z,6.40
2019-03-20T03:33:30.666Z,6.30
2019-03-20T03:36:35.593Z,6.30
2019-03-20T03:39:40.761Z,6.20
2019-03-20T03:42:45.660Z,6.10
2019-03-20T03:45:50.821Z,6.10
2019-03-20T03:48:55.765Z,6.00
2019-03-20T03:52:00.606Z,5.90
2019-03-20T03:55:06.024Z,5.80
2019-03-20T03:58:10.919Z,5.80
2019-03-20T04:01:16.428Z,5.70
2019-03-20T04:04:25.025Z,5.60
2019-03-20T04:07:30.019Z,5.60
2019-03-20T04:10:35.408Z,5.60
2019-03-20T04:13:40.459Z,5.50
2019-03-20T04:16:45.725Z,5.40
2019-03-20T04:19:50.752Z,5.40
2019-03-20T04:22:56.005Z,5.40
2019-03-20T04:26:00.929Z,5.30
2019-03-20T04:29:06.303Z,5.20
2019-03-20T04:32:11.399Z,5.10
2019-03-20T04:35:16.480Z,5.00
2019-03-20T04:38:21.412Z,4.90
2019-03-20T04:41:26.381Z,4.90
2019-03-20T04:44:31.365Z,4.90
2019-03-20T04:47:36.517Z,4.90
2019-03-20T04:50:41.455Z,4.80
2019-03-20T04:53:46.300Z,4.80
2019-03-20T04:56:51.230Z,4.80
2019-03-20T04:59:56.289Z,4.70
2019-03-20T05:03:01.393Z,4.70
2019-03-20T05:06:14.392Z,4.70
2019-03-20T05:09:19.673Z,4.70
2019-03-20T05:12:24.731Z,4.60
2019-03-20T05:15:29.963Z,4.60
2019-03-20T05:18:41.230Z,4.60
2019-03-20T05:21:46.304Z,4.60
2019-03-20T05:24:51.496Z,4.70
2019-03-20T05:27:56.475Z,4.70
2019-03-20T05:31:01.638Z,4.70
2019-03-20T05:34:06.547Z,4.70
2019-03-20T05:37:11.677Z,4.60
2019-03-20T05:40:16.737Z,4.70
2019-03-20T05:43:21.736Z,4.60
2019-03-20T05:46:26.707Z,4.80
2019-03-20T05:49:31.852Z,4.80
2019-03-20T05:52:37.020Z,4.80
2019-03-20T05:55:41.883Z,4.80
2019-03-20T05:58:46.792Z,4.90
2019-03-20T06:01:51.728Z,4.90
2019-03-20T06:04:56.677Z,5.00
2019-03-20T06:08:01.688Z,5.10
2019-03-20T06:11:06.701Z,5.10
2019-03-20T06:14:11.689Z,5.20
2019-03-20T06:17:16.877Z,5.20
2019-03-20T06:20:21.837Z,5.30
2019-03-20T06:23:26.946Z,5.30
2019-03-20T06:26:31.973Z,5.40
2019-03-20T06:29:36.982Z,5.50
2019-03-20T06:32:42.184Z,5.50
2019-03-20T06:35:47.352Z,5.60
2019-03-20T06:38:53.519Z,5.60
2019-03-20T06:41:58.609Z,5.70
2019-03-20T06:45:03.761Z,5.90
2019-03-20T06:48:08.671Z,6.00
2019-03-20T06:51:13.855Z,6.20
2019-03-20T06:54:18.840Z,6.40
2019-03-20T06:57:23.740Z,6.70
2019-03-20T07:01:05.573Z,7.00
2019-03-20T07:04:31.065Z,7.40
2019-03-20T07:07:43.961Z,8.10
2019-03-20T07:11:05.541Z,9.10
2019-03-20T07:14:10.445Z,12.20
2019-03-20T07:17:15.492Z,16.10
2019-03-20T07:20:20.626Z,18.70
2019-03-20T07:23:26.082Z,19.50
2019-03-20T07:26:31.114Z,20.50
2019-03-20T07:29:36.249Z,20.10
2019-03-20T07:32:41.388Z,18.70
2019-03-20T07:35:46.329Z,18.10
2019-03-20T07:38:51.245Z,18.00
2019-03-20T07:41:56.149Z,17.60
2019-03-20T07:45:01.218Z,16.90
2019-03-20T07:48:09.060Z,16.20
2019-03-20T07:51:14.571Z,15.50
2019-03-20T07:54:19.843Z,15.30
2019-03-20T07:57:24.755Z,16.30
2019-03-20T08:00:29.863Z,17.00
2019-03-20T08:03:34.770Z,16.90
2019-03-20T08:06:39.817Z,17.00
2019-03-20T08:09:44.905Z,17.30
2019-03-20T08:12:49.988Z,17.00
2019-03-20T08:15:55.195Z,16.60
2019-03-20T08:19:00.199Z,16.00
2019-03-20T08:22:05.090Z,15.10
2019-03-20T08:25:10.483Z,14.70
2019-03-20T08:28:15.366Z,14.50
2019-03-20T08:31:20.317Z,14.40
2019-03-20T08:34:25.012Z,14.10
2019-03-20T08:37:33.089Z,13.80
2019-03-20T08:40:38.164Z,14.50
2019-03-20T08:43:45.622Z,14.20
2019-03-20T08:46:50.694Z,13.70
2019-03-20T08:49:55.614Z,13.00
2019-03-20T08:53:00.602Z,12.80
2019-03-20T08:56:15.004Z,12.90
2019-03-20T08:59:12.314Z,13.30
2019-03-20T09:02:17.386Z,14.80
2019-03-20T09:05:22.393Z,15.30
2019-03-20T09:08:29.642Z,15.20
2019-03-20T09:11:34.273Z,15.30
2019-03-20T09:14:39.506Z,15.20
2019-03-20T09:17:44.329Z,14.60
2019-03-20T09:20:49.317Z,13.90
2019-03-20T09:23:57.636Z,13.50
2019-03-20T09:27:02.846Z,13.90
2019-03-20T09:30:13.555Z,13.80
2019-03-20T09:33:18.624Z,13.70
2019-03-20T09:36:23.646Z,13.60
2019-03-20T09:39:28.577Z,13.30
2019-03-20T09:42:33.921Z,13.10
2019-03-20T09:45:39.010Z,13.10
2019-03-20T09:48:43.993Z,13.40
2019-03-20T09:51:48.977Z,13.30
2019-03-20T09:54:53.797Z,13.00
2019-03-20T09:57:59.051Z,12.60
2019-03-20T10:01:03.854Z,12.50
2019-03-20T10:04:09.106Z,12.60
2019-03-20T10:07:14.007Z,12.70
2019-03-20T10:10:20.298Z,12.90
2019-03-20T10:13:26.423Z,12.90
2019-03-20T10:16:31.505Z,12.90
2019-03-20T10:19:43.190Z,13.50
2019-03-20T10:22:48.363Z,14.80
2019-03-20T10:25:53.462Z,16.00
2019-03-20T10:28:58.377Z,15.90
2019-03-20T10:32:03.272Z,16.10
2019-03-20T10:35:09.147Z,15.80
2019-03-20T10:38:15.364Z,20.40
2019-03-20T10:41:20.673Z,25.30
2019-03-20T10:44:25.809Z,27.60
2019-03-20T10:47:30.949Z,28.20
2019-03-20T10:50:35.793Z,28.40
2019-03-20T10:53:40.743Z,29.30
2019-03-20T10:56:45.719Z,27.90
2019-03-20T10:59:50.633Z,25.90
2019-03-20T11:02:55.478Z,25.10
2019-03-20T11:06:00.442Z,25.70
2019-03-20T11:09:17.605Z,26.20
2019-03-20T11:12:14.802Z,27.70
2019-03-20T11:15:20.258Z,28.30
2019-03-20T11:18:25.333Z,26.50
2019-03-20T11:21:30.232Z,28.20
2019-03-20T11:24:35.206Z,31.20
2019-03-20T11:27:40.242Z,32.20
2019-03-20T11:30:51.072Z,32.60
2019-03-20T11:33:56.048Z,33.40
2019-03-20T11:37:01.155Z,32.10
2019-03-20T11:40:11.864Z,30.90
2019-03-20T11:43:16.990Z,28.30
2019-03-20T11:46:21.944Z,26.20
2019-03-20T11:49:28.681Z,24.20
2019-03-20T11:52:33.633Z,22.30
2019-03-20T11:55:39.713Z,21.00
2019-03-20T11:58:51.084Z,19.40
2019-03-20T12:01:55.993Z,18.60
2019-03-20T12:05:01.074Z,21.20
2019-03-20T12:08:06.540Z,24.60
2019-03-20T12:11:11.701Z,27.70
2019-03-20T12:14:16.781Z,28.60
2019-03-20T12:17:21.709Z,30.10
2019-03-20T12:20:29.114Z,30.20
2019-03-20T12:23:34.744Z,30.40
2019-03-20T12:26:41.259Z,30.60
2019-03-20T12:29:46.191Z,30.00
2019-03-20T12:32:51.144Z,29.90
2019-03-20T12:35:56.065Z,30.80
2019-03-20T12:39:01.200Z,31.20
2019-03-20T12:42:06.324Z,29.20
2019-03-20T12:45:13.698Z,28.60
2019-03-20T12:48:18.649Z,29.20
2019-03-20T12:51:23.950Z,29.50
2019-03-20T12:54:29.117Z,29.70
2019-03-20T12:57:33.841Z,30.40
2019-03-20T13:00:38.848Z,31.10
2019-03-20T13:03:43.529Z,31.60
2019-03-20T13:06:48.310Z,31.30
2019-03-20T13:10:03.006Z,30.20
2019-03-20T13:13:00.788Z,30.50
2019-03-20T13:16:06.491Z,30.90
2019-03-20T13:19:11.378Z,31.00
2019-03-20T13:22:16.417Z,30.10
2019-03-20T13:25:21.426Z,29.20
2019-03-20T13:28:26.421Z,26.40
2019-03-20T13:31:31.765Z,24.10
2019-03-20T13:34:36.893Z,22.20
2019-03-20T13:37:42.034Z,21.40
2019-03-20T13:40:47.086Z,19.80
2019-03-20T13:43:52.128Z,18.60
2019-03-20T13:46:57.108Z,17.90
2019-03-20T13:50:05.448Z,17.60
2019-03-20T13:53:17.885Z,17.40
2019-03-20T13:56:22.998Z,17.30
2019-03-20T13:59:28.134Z,17.20
2019-03-20T14:02:33.636Z,16.80
2019-03-20T14:05:38.554Z,16.50
2019-03-20T14:08:52.914Z,16.20
2019-03-20T14:11:58.657Z,16.20
2019-03-20T14:15:03.656Z,16.20
2019-03-20T14:18:08.783Z,16.30
2019-03-20T14:21:13.745Z,16.10
2019-03-20T14:24:18.847Z,15.50
2019-03-20T14:27:23.806Z,15.00
2019-03-20T14:30:36.328Z,14.60
2019-03-20T14:33:41.260Z,14.60
2019-03-20T14:36:46.493Z,14.30
2019-03-20T14:39:51.559Z,14.40
2019-03-20T14:42:56.600Z,14.60
2019-03-20T14:46:01.810Z,14.70
2019-03-20T14:49:06.773Z,14.90
2019-03-20T14:52:11.976Z,14.80
2019-03-20T14:55:17.512Z,14.70
2019-03-20T14:58:22.599Z,14.40
2019-03-20T15:01:27.689Z,14.00
2019-03-20T15:04:32.720Z,13.80
2019-03-20T15:07:37.676Z,13.60
2019-03-20T15:10:46.225Z,13.40
2019-03-20T15:13:49.327Z,13.30
2019-03-20T15:16:54.090Z,13.30
2019-03-20T15:19:59.022Z,13.40
2019-03-20T15:23:04.157Z,13.50
2019-03-20T15:26:09.185Z,13.50
2019-03-20T15:29:14.443Z,13.70
2019-03-20T15:32:19.468Z,13.70
2019-03-20T15:35:24.716Z,13.50
2019-03-20T15:38:29.981Z,13.40
2019-03-20T15:41:35.180Z,13.50
2019-03-20T15:44:40.178Z,13.60
2019-03-20T15:47:45.282Z,13.30
2019-03-20T15:50:50.441Z,13.30
2019-03-20T15:53:55.254Z,13.10
2019-03-20T15:57:00.229Z,13.00
2019-03-20T16:00:06.086Z,13.10
2019-03-20T16:03:13.649Z,13.00
2019-03-20T16:06:18.975Z,13.10
2019-03-20T16:09:32.493Z,12.90
2019-03-20T16:12:58.695Z,12.80
2019-03-20T16:16:04.207Z,12.70
2019-03-20T16:19:09.331Z,12.70
2019-03-20T16:22:14.888Z,12.50
2019-03-20T16:25:19.901Z,12.20
2019-03-20T16:28:25.075Z,12.00
2019-03-20T16:31:30.062Z,11.80
2019-03-20T16:34:35.044Z,11.70
2019-03-20T16:37:40.779Z,11.80
2019-03-20T16:40:45.934Z,11.80
2019-03-20T16:43:51.813Z,11.70
2019-03-20T16:46:57.286Z,11.60
2019-03-20T16:50:02.239Z,11.30
2019-03-20T16:53:07.741Z,11.00
2019-03-20T16:56:12.716Z,10.90
2019-03-20T16:59:17.694Z,10.80
2019-03-20T17:02:22.785Z,10.60
2019-03-20T17:05:30.279Z,10.50
2019-03-20T17:08:35.252Z,10.50
2019-03-20T17:11:41.916Z,10.50
2019-03-20T17:14:47.384Z,10.50
2019-03-20T17:17:52.797Z,10.40
2019-03-20T17:20:58.069Z,10.40
2019-03-20T17:24:05.252Z,10.30
2019-03-20T17:27:10.403Z,10.30
2019-03-20T17:30:24.652Z,10.30
2019-03-20T17:33:32.513Z,10.20
2019-03-20T17:36:37.731Z,10.20
2019-03-20T17:39:42.633Z,10.20
2019-03-20T17:42:53.491Z,10.20
2019-03-20T17:45:58.517Z,10.20
2019-03-20T17:49:03.783Z,10.10
2019-03-20T17:52:08.859Z,10.10
2019-03-20T17:55:34.735Z,10.10
2019-03-20T17:58:39.906Z,10.10
2019-03-20T18:01:45.119Z,10.10
2019-03-20T18:04:50.300Z,10.00
2019-03-20T18:07:55.616Z,10.00
2019-03-20T18:11:00.649Z,10.00
2019-03-20T18:14:05.610Z,10.00
2019-03-20T18:17:13.244Z,9.90
2019-03-20T18:20:20.178Z,9.90
2019-03-20T18:23:25.142Z,9.80
2019-03-20T18:26:33.597Z,9.70
2019-03-20T18:29:38.621Z,9.60
2019-03-20T18:32:43.785Z,9.70
2019-03-20T18:35:52.026Z,9.70
2019-03-20T18:38:57.169Z,9.60
2019-03-20T18:42:05.069Z,9.50
2019-03-20T18:45:11.336Z,9.50
2019-03-20T18:48:16.237Z,9.40
2019-03-20T18:51:22.862Z,9.40
2019-03-20T18:54:29.153Z,9.40
2019-03-20T18:57:34.296Z,9.30
2019-03-20T19:00:39.380Z,9.20
2019-03-20T19:03:46.051Z,9.10
2019-03-20T19:06:51.175Z,9.00
2019-03-20T19:09:56.244Z,9.00
2019-03-20T19:13:03.103Z,8.90
2019-03-20T19:16:09.668Z,8.80
2019-03-20T19:19:14.795Z,8.70
2019-03-20T19:22:19.953Z,8.70
2019-03-20T19:25:25.117Z,8.50
2019-03-20T19:28:30.071Z,8.40
2019-03-20T19:31:55.812Z,8.30
2019-03-20T19:35:01.096Z,8.30
2019-03-20T19:38:06.325Z,8.10
2019-03-20T19:41:12.515Z,8.00
2019-03-20T19:44:17.565Z,8.00
2019-03-20T19:47:22.558Z,8.00
2019-03-20T19:50:27.756Z,7.90
2019-03-20T19:53:32.873Z,7.80
2019-03-20T19:56:38.715Z,7.80
2019-03-20T19:59:43.887Z,7.70
2019-03-20T20:02:48.955Z,7.60
2019-03-20T20:05:53.915Z,7.50
2019-03-20T20:08:59.013Z,7.50
2019-03-20T20:12:04.995Z,7.30
2019-03-20T20:15:13.505Z,7.30
2019-03-20T20:18:20.588Z,7.20
2019-03-20T20:21:26.142Z,7.20
2019-03-20T20:24:31.789Z,7.20
2019-03-20T20:27:36.902Z,7.20
2019-03-20T20:30:42.137Z,7.20
2019-03-20T20:33:47.600Z,7.00
2019-03-20T20:36:52.645Z,7.00
2019-03-20T20:40:02.465Z,6.90
2019-03-20T20:43:07.511Z,6.90
2019-03-20T20:46:12.735Z,6.80
2019-03-20T20:49:18.035Z,6.80
2019-03-20T20:52:23.194Z,6.70
2019-03-20T20:55:28.292Z,6.70
2019-03-20T20:58:33.457Z,6.60
2019-03-20T21:01:38.609Z,6.50
2019-03-20T21:04:43.672Z,6.30
2019-03-20T21:07:48.777Z,6.30
2019-03-20T21:10:53.936Z,6.10
2019-03-20T21:13:59.038Z,6.10
2019-03-20T21:17:04.598Z,6.10
2019-03-20T21:20:10.721Z,6.00
2019-03-20T21:24:07.648Z,5.90
2019-03-20T21:27:50.602Z,5.90
2019-03-20T21:31:23.354Z,5.90
2019-03-20T21:35:01.288Z,5.90
2019-03-20T21:38:08.100Z,5.90
2019-03-20T21:41:56.414Z,5.80
2019-03-20T21:45:28.285Z,5.80
2019-03-20T21:48:34.172Z,5.70
2019-03-20T21:51:40.090Z,5.60
2019-03-20T21:55:38.497Z,5.60
2019-03-20T21:58:52.191Z,5.60
2019-03-20T22:02:20.745Z,5.60
2019-03-20T22:06:00.190Z,5.60
2019-03-20T22:09:13.134Z,5.50
2019-03-20T22:12:41.240Z,5.50
2019-03-20T22:16:23.309Z,5.40
2019-03-20T22:20:02.740Z,5.20
2019-03-20T22:23:28.949Z,5.30
2019-03-20T22:27:09.862Z,5.30
2019-03-20T22:30:16.984Z,5.20
2019-03-20T22:33:57.467Z,5.10
2019-03-20T22:37:03.056Z,5.10
2019-03-20T22:40:57.903Z,5.10
2019-03-20T22:44:06.075Z,5.10
2019-03-20T22:47:55.869Z,5.00
2019-03-20T22:51:33.668Z,5.00
2019-03-20T22:55:18.550Z,5.00
2019-03-20T22:58:48.857Z,4.80
2019-03-20T23:02:14.425Z,4.80
2019-03-20T23:05:20.327Z,4.80
2019-03-20T23:08:25.847Z,4.80
2019-03-20T23:11:31.580Z,4.80
2019-03-20T23:14:37.202Z,4.70
2019-03-20T23:17:42.537Z,4.70
2019-03-20T23:20:48.236Z,4.60
2019-03-20T23:23:57.853Z,4.50
2019-03-20T23:27:05.149Z,4.40
2019-03-20T23:30:16.701Z,4.40
2019-03-20T23:33:27.475Z,4.30
2019-03-20T23:36:33.168Z,4.30
2019-03-20T23:39:38.737Z,4.20
2019-03-20T23:42:44.762Z,4.20
2019-03-20T23:45:50.356Z,4.20
2019-03-20T23:49:05.606Z,4.20
2019-03-20T23:52:15.989Z,4.20
2019-03-20T23:55:21.388Z,4.20
2019-03-20T23:58:26.977Z,4.10
